createdAt,value
2019-04-22T00:02:40.101Z,83.80
2019-04-22T00:05:15.598Z,84.60
2019-04-22T00:08:01.655Z,84.90
2019-04-22T00:10:45.329Z,84.00
2019-04-22T00:13:06.729Z,84.60
2019-04-22T00:15:37.112Z,84.70
2019-04-22T00:18:16.566Z,84.20
2019-04-22T00:20:50.426Z,84.60
2019-04-22T00:23:20.348Z,85.00
2019-04-22T00:25:57.328Z,84.70
2019-04-22T00:28:21.678Z,85.00
2019-04-22T00:31:02.837Z,85.00
2019-04-22T00:33:34.301Z,84.80
2019-04-22T00:36:14.968Z,84.80
2019-04-22T00:38:44.431Z,84.70
2019-04-22T00:41:16.679Z,85.10
2019-04-22T00:43:48.067Z,85.20
2019-04-22T00:46:19.589Z,85.20
2019-04-22T00:49:06.441Z,84.80
2019-04-22T00:51:47.416Z,84.40
2019-04-22T00:53:57.861Z,84.30
2019-04-22T00:56:24.666Z,84.50
2019-04-22T00:59:01.626Z,84.70
2019-04-22T01:01:31.952Z,84.50
2019-04-22T01:06:36.475Z,84.50
2019-04-22T01:09:11.241Z,84.50
2019-04-22T01:11:37.377Z,84.90
2019-04-22T01:14:19.709Z,84.70
2019-04-22T01:16:52.107Z,86.60
2019-04-22T01:19:27.630Z,86.00
2019-04-22T01:21:52.798Z,85.80
2019-04-22T01:24:22.102Z,86.10
2019-04-22T01:26:56.273Z,86.20
2019-04-22T01:29:22.576Z,86.50
2019-04-22T01:31:43.838Z,86.80
2019-04-22T01:34:28.888Z,86.90
2019-04-22T01:37:03.519Z,87.70
2019-04-22T01:39:45.522Z,89.40
2019-04-22T01:42:37.661Z,88.90
2019-04-22T01:45:07.249Z,89.10
2019-04-22T01:47:24.824Z,89.40
2019-04-22T01:49:55.994Z,89.90
2019-04-22T02:11:24.090Z,91.20
2019-04-22T02:13:49.809Z,91.50
2019-04-22T02:16:23.112Z,91.70
2019-04-22T02:18:53.095Z,91.80
2019-04-22T02:21:21.550Z,91.90
2019-04-22T02:24:00.627Z,92.20
2019-04-22T02:26:31.292Z,92.00
2019-04-22T02:29:01.999Z,92.10
2019-04-22T02:31:44.172Z,92.40
2019-04-22T02:34:14.100Z,92.50
2019-04-22T02:36:43.262Z,92.90
2019-04-22T02:44:26.311Z,93.10
2019-04-22T02:49:39.735Z,93.20
2019-04-22T02:51:53.955Z,93.40
2019-04-22T02:54:43.535Z,93.60
2019-04-22T02:57:19.375Z,93.60
2019-04-22T03:02:12.206Z,93.70
2019-04-22T03:04:37.402Z,93.80
2019-04-22T03:07:12.720Z,94.00
2019-04-22T03:09:47.697Z,94.00
2019-04-22T03:12:29.242Z,94.10
2019-04-22T03:20:01.902Z,94.40
2019-04-22T03:25:33.288Z,94.60
2019-04-22T03:30:45.262Z,94.60
2019-04-22T03:37:56.115Z,95.10
2019-04-22T03:42:59.690Z,95.20
2019-04-22T03:47:57.570Z,95.40
2019-04-22T03:53:09.793Z,95.20
2019-04-22T03:55:39.120Z,95.30
2019-04-22T03:57:59.686Z,95.40
2019-04-22T04:00:55.311Z,95.40
2019-04-22T04:03:11.998Z,95.50
2019-04-22T04:08:35.658Z,95.30
2019-04-22T04:10:53.507Z,95.30
2019-04-22T04:13:28.507Z,95.50
2019-04-22T04:15:55.644Z,95.50
2019-04-22T04:18:39.239Z,96.00
2019-04-22T04:26:42.407Z,95.70
2019-04-22T04:28:50.323Z,95.90
2019-04-22T04:34:04.085Z,96.20
2019-04-22T04:36:16.542Z,96.20
2019-04-22T04:38:58.434Z,96.10
2019-04-22T04:41:42.133Z,96.20
2019-04-22T04:44:01.819Z,96.10
2019-04-22T04:54:21.428Z,95.40
2019-04-22T04:56:40.596Z,95.10
2019-04-22T05:00:09.923Z,95.50
2019-04-22T05:07:09.297Z,95.60
2019-04-22T05:09:22.093Z,95.40
2019-04-22T05:14:24.745Z,95.60
2019-04-22T05:19:33.382Z,95.30
2019-04-22T05:22:14.821Z,95.20
2019-04-22T05:27:16.356Z,95.00
2019-04-22T05:29:46.510Z,95.10
2019-04-22T05:32:14.087Z,95.10
2019-04-22T05:37:20.692Z,95.30
2019-04-22T05:39:49.635Z,95.40
2019-04-22T05:42:17.913Z,95.50
2019-04-22T05:44:55.183Z,95.90
2019-04-22T05:47:26.102Z,95.30
2019-04-22T05:49:54.696Z,94.80
2019-04-22T05:52:36.020Z,93.90
2019-04-22T05:55:08.208Z,93.60
2019-04-22T05:57:37.239Z,92.80
2019-04-22T06:00:18.255Z,91.80
2019-04-22T06:05:17.546Z,91.40
2019-04-22T06:07:55.124Z,90.80
2019-04-22T06:10:37.593Z,90.70
2019-04-22T06:12:57.765Z,90.20
2019-04-22T06:15:32.822Z,90.50
2019-04-22T06:18:09.474Z,90.20
2019-04-22T06:20:53.925Z,90.70
2019-04-22T06:28:40.697Z,87.10
2019-04-22T06:31:13.925Z,85.70
2019-04-22T06:33:56.746Z,85.40
2019-04-22T06:36:37.521Z,84.30
2019-04-22T06:39:10.311Z,85.40
2019-04-22T06:42:07.934Z,83.70
2019-04-22T06:44:43.095Z,84.00
2019-04-22T06:47:22.287Z,81.40
2019-04-22T06:49:53.059Z,80.90
2019-04-22T06:52:18.322Z,78.90
2019-04-22T06:54:54.797Z,79.10
2019-04-22T06:57:25.571Z,76.30
2019-04-22T07:00:08.309Z,77.20
2019-04-22T07:02:45.220Z,75.60
2019-04-22T07:05:08.290Z,73.10
2019-04-22T07:07:40.317Z,74.30
2019-04-22T07:10:23.619Z,74.60
2019-04-22T07:12:47.223Z,72.80
2019-04-22T07:15:40.012Z,68.10
2019-04-22T07:20:23.790Z,66.20
2019-04-22T07:22:59.438Z,62.80
2019-04-22T07:25:32.783Z,60.80
2019-04-22T07:28:01.041Z,60.00
2019-04-22T07:30:35.040Z,59.20
2019-04-22T07:35:47.574Z,58.40
2019-04-22T07:38:22.279Z,58.00
2019-04-22T07:40:51.999Z,54.40
2019-04-22T07:43:32.476Z,52.80
2019-04-22T07:45:48.909Z,53.40
2019-04-22T07:48:33.244Z,51.40
2019-04-22T07:53:29.010Z,52.50
2019-04-22T07:56:01.916Z,49.30
2019-04-22T07:58:36.098Z,48.10
2019-04-22T08:01:12.363Z,50.60
2019-04-22T08:03:53.290Z,47.00
2019-04-22T08:08:45.574Z,48.60
2019-04-22T08:11:31.077Z,44.50
2019-04-22T08:13:46.997Z,45.10
2019-04-22T08:16:23.589Z,44.00
2019-04-22T08:19:03.146Z,42.50
2019-04-22T08:21:25.207Z,43.10
2019-04-22T08:24:01.164Z,42.90
2019-04-22T08:26:32.113Z,43.00
2019-04-22T08:29:08.133Z,46.40
2019-04-22T08:31:40.074Z,45.60
2019-04-22T08:34:14.295Z,44.90
2019-04-22T08:36:54.047Z,44.00
2019-04-22T08:39:19.509Z,43.20
2019-04-22T08:41:39.801Z,41.30
2019-04-22T08:44:37.735Z,41.90
2019-04-22T08:46:57.859Z,40.80
2019-04-22T08:49:30.682Z,42.30
2019-04-22T08:52:03.896Z,42.70
2019-04-22T08:54:29.741Z,40.70
2019-04-22T08:57:12.513Z,40.80
2019-04-22T08:59:36.939Z,41.40
2019-04-22T09:02:16.332Z,40.70
2019-04-22T09:04:45.054Z,39.50
2019-04-22T09:10:01.959Z,38.90
2019-04-22T09:12:23.812Z,38.10
2019-04-22T09:15:06.281Z,40.40
2019-04-22T09:17:41.435Z,40.30
2019-04-22T09:20:00.388Z,39.30
2019-04-22T09:22:26.635Z,38.30
2019-04-22T09:25:03.711Z,38.70
2019-04-22T09:27:41.245Z,39.90
2019-04-22T09:30:16.913Z,37.60
2019-04-22T09:32:52.378Z,36.50
2019-04-22T09:35:21.478Z,39.00
2019-04-22T09:37:57.273Z,38.40
2019-04-22T09:40:35.184Z,38.10
2019-04-22T09:42:56.061Z,37.90
2019-04-22T09:45:31.963Z,36.60
2019-04-22T09:48:08.656Z,38.30
2019-04-22T09:53:51.509Z,39.00
2019-04-22T09:56:18.094Z,35.30
2019-04-22T09:58:55.667Z,33.50
2019-04-22T10:01:59.441Z,32.90
2019-04-22T10:04:07.160Z,33.90
2019-04-22T10:06:54.667Z,33.50
2019-04-22T10:09:56.159Z,34.90
2019-04-22T10:12:02.614Z,31.80
2019-04-22T10:14:54.210Z,32.00
2019-04-22T10:17:26.162Z,32.50
2019-04-22T10:20:04.080Z,32.80
2019-04-22T10:22:39.483Z,30.00
2019-04-22T10:25:21.440Z,30.60
2019-04-22T10:27:59.950Z,31.00
2019-04-22T10:30:39.071Z,29.60
2019-04-22T10:33:08.810Z,29.80
2019-04-22T10:35:20.958Z,28.60
2019-04-22T10:38:24.532Z,27.30
2019-04-22T10:41:02.403Z,26.40
2019-04-22T10:43:36.981Z,26.00
2019-04-22T10:46:10.525Z,27.70
2019-04-22T10:52:27.619Z,27.10
2019-04-22T10:55:09.552Z,27.20
2019-04-22T10:58:49.040Z,26.30
2019-04-22T11:04:32.236Z,24.50
2019-04-22T11:07:10.499Z,24.20
2019-04-22T11:09:57.144Z,24.60
2019-04-22T11:12:26.552Z,25.80
2019-04-22T11:14:55.867Z,24.70
2019-04-22T11:17:26.910Z,24.50
2019-04-22T11:19:59.537Z,25.00
2019-04-22T11:22:36.838Z,24.90
2019-04-22T11:25:07.679Z,24.70
2019-04-22T11:27:39.035Z,24.10
2019-04-22T11:30:11.145Z,24.00
2019-04-22T11:32:44.837Z,23.60
2019-04-22T11:35:16.755Z,23.20
2019-04-22T11:37:48.661Z,24.20
2019-04-22T11:40:28.748Z,24.10
2019-04-22T11:43:17.310Z,24.50
2019-04-22T11:45:29.136Z,24.00
2019-04-22T11:48:03.653Z,24.10
2019-04-22T11:50:35.748Z,23.20
2019-04-22T11:53:16.709Z,23.10
2019-04-22T11:55:55.084Z,23.50
2019-04-22T11:58:30.656Z,24.40
2019-04-22T12:01:06.509Z,24.40
2019-04-22T12:03:49.284Z,22.20
2019-04-22T12:06:22.146Z,23.00
2019-04-22T12:08:55.394Z,23.60
2019-04-22T12:11:40.864Z,24.00
2019-04-22T12:14:50.425Z,23.90
2019-04-22T12:17:26.518Z,23.40
2019-04-22T12:20:08.339Z,23.00
2019-04-22T12:22:38.990Z,23.00
2019-04-22T12:25:32.358Z,21.80
2019-04-22T12:27:57.032Z,21.30
2019-04-22T12:30:34.999Z,21.30
2019-04-22T12:33:11.035Z,21.90
2019-04-22T12:35:46.876Z,21.40
2019-04-22T12:38:18.953Z,20.90
2019-04-22T12:40:56.419Z,20.20
2019-04-22T12:43:26.493Z,20.20
2019-04-22T12:46:32.398Z,19.30
2019-04-22T12:49:04.512Z,19.80
2019-04-22T12:51:38.758Z,20.20
2019-04-22T12:54:10.993Z,21.00
2019-04-22T12:57:10.320Z,21.10
2019-04-22T12:59:45.640Z,21.70
2019-04-22T13:02:18.777Z,21.90
2019-04-22T13:04:58.197Z,20.90
2019-04-22T13:07:31.874Z,21.20
2019-04-22T13:10:05.962Z,21.30
2019-04-22T13:12:40.372Z,21.20
2019-04-22T13:15:14.135Z,21.20
2019-04-22T13:18:01.057Z,22.80
2019-04-22T13:20:26.209Z,22.70
2019-04-22T13:23:07.572Z,22.40
2019-04-22T13:25:47.349Z,22.70
2019-04-22T13:28:40.955Z,22.30
2019-04-22T13:31:22.908Z,22.70
2019-04-22T13:34:09.575Z,23.20
2019-04-22T13:36:32.319Z,22.90
2019-04-22T13:39:04.859Z,23.60
2019-04-22T13:41:44.270Z,23.80
2019-04-22T13:44:12.792Z,24.30
2019-04-22T13:47:02.084Z,24.00
2019-04-22T13:49:56.596Z,24.60
2019-04-22T13:52:20.704Z,25.20
2019-04-22T13:57:20.116Z,24.70
2019-04-22T13:59:43.019Z,24.80
2019-04-22T14:02:40.245Z,23.90
2019-04-22T14:05:15.238Z,24.10
2019-04-22T14:07:54.849Z,24.40
2019-04-22T14:10:26.990Z,23.90
2019-04-22T14:13:03.884Z,24.40
2019-04-22T14:15:40.248Z,24.20
2019-04-22T14:18:19.082Z,23.50
2019-04-22T14:20:51.115Z,23.50
2019-04-22T14:23:32.984Z,23.90
2019-04-22T14:26:07.215Z,24.60
2019-04-22T14:28:39.518Z,24.40
2019-04-22T14:31:20.400Z,23.70
2019-04-22T14:33:55.814Z,23.50
2019-04-22T14:36:33.367Z,22.90
2019-04-22T14:39:06.175Z,23.90
2019-04-22T14:41:55.116Z,24.30
2019-04-22T14:47:09.325Z,25.40
2019-04-22T14:49:54.332Z,25.70
2019-04-22T14:52:27.771Z,25.80
2019-04-22T14:54:51.987Z,26.40
2019-04-22T14:57:37.485Z,26.90
2019-04-22T15:02:37.539Z,27.30
2019-04-22T15:03:36.593Z,27.30
2019-04-22T15:09:52.113Z,27.20
2019-04-22T15:14:17.277Z,27.60
2019-04-22T15:16:02.701Z,27.80
2019-04-22T15:20:21.608Z,27.10
2019-04-22T15:21:58.732Z,26.60
2019-04-22T15:24:54.539Z,27.10
2019-04-22T15:28:33.405Z,26.60
2019-04-22T15:31:35.370Z,26.80
2019-04-22T15:34:16.378Z,27.30
2019-04-22T15:36:56.048Z,26.90
2019-04-22T15:39:29.211Z,27.10
2019-04-22T15:42:20.926Z,27.50
2019-04-22T15:44:53.903Z,26.90
2019-04-22T15:47:37.751Z,27.00
2019-04-22T15:50:10.108Z,27.10
2019-04-22T15:52:49.110Z,27.50
2019-04-22T15:55:14.615Z,27.00
2019-04-22T15:57:45.824Z,26.80
2019-04-22T16:00:29.336Z,26.90
2019-04-22T16:02:49.894Z,26.90
2019-04-22T16:05:20.833Z,26.90
2019-04-22T16:07:53.033Z,27.20
2019-04-22T16:10:24.142Z,27.40
2019-04-22T16:13:07.326Z,27.30
2019-04-22T16:15:31.739Z,27.50
2019-04-22T16:18:04.726Z,27.60
2019-04-22T16:20:36.337Z,27.90
2019-04-22T16:23:29.770Z,28.20
2019-04-22T16:26:07.546Z,28.10
2019-04-22T16:28:39.761Z,28.20
2019-04-22T16:31:11.274Z,28.00
2019-04-22T16:33:47.691Z,27.80
2019-04-22T16:36:16.941Z,28.70
2019-04-22T16:38:49.020Z,27.60
2019-04-22T16:41:21.164Z,27.30
2019-04-22T16:43:52.558Z,27.40
2019-04-22T16:46:23.593Z,28.00
2019-04-22T16:48:55.840Z,28.20
2019-04-22T16:51:27.647Z,27.50
2019-04-22T16:54:36.891Z,27.20
2019-04-22T16:57:08.132Z,27.80
2019-04-22T16:59:40.350Z,27.30
2019-04-22T17:02:41.720Z,28.10
2019-04-22T17:05:31.504Z,28.10
2019-04-22T17:08:02.512Z,27.70
2019-04-22T17:10:33.993Z,28.30
2019-04-22T17:13:10.996Z,28.30
2019-04-22T17:15:37.616Z,28.30
2019-04-22T17:18:09.581Z,28.30
2019-04-22T17:20:42.566Z,28.70
2019-04-22T17:23:13.980Z,29.00
2019-04-22T17:25:44.911Z,28.70
2019-04-22T17:28:15.725Z,29.20
2019-04-22T17:30:47.813Z,29.10
2019-04-22T17:33:18.916Z,29.40
2019-04-22T17:35:51.012Z,29.20
2019-04-22T17:38:31.043Z,29.20
2019-04-22T17:41:07.722Z,28.80
2019-04-22T17:43:54.236Z,29.20
2019-04-22T17:46:29.196Z,29.40
2019-04-22T17:49:10.457Z,30.20
2019-04-22T17:52:04.539Z,30.00
2019-04-22T17:54:40.686Z,30.70
2019-04-22T17:57:09.496Z,30.40
2019-04-22T17:59:44.204Z,30.20
2019-04-22T18:02:11.545Z,30.40
2019-04-22T18:04:33.745Z,30.70
2019-04-22T18:07:26.961Z,30.40
2019-04-22T18:10:16.495Z,30.80
2019-04-22T18:12:33.505Z,31.20
2019-04-22T18:15:16.305Z,31.70
2019-04-22T18:17:35.426Z,32.00
2019-04-22T18:20:02.665Z,32.50
2019-04-22T18:22:29.417Z,33.00
2019-04-22T18:25:02.179Z,32.80
2019-04-22T18:30:18.028Z,33.80
2019-04-22T18:32:55.629Z,33.90
2019-04-22T18:35:26.497Z,33.80
2019-04-22T18:38:11.296Z,33.50
2019-04-22T18:40:37.283Z,33.20
2019-04-22T18:43:17.104Z,33.10
2019-04-22T18:45:57.524Z,33.20
2019-04-22T18:48:12.718Z,33.00
2019-04-22T18:51:06.482Z,33.10
2019-04-22T18:53:54.070Z,33.30
2019-04-22T18:57:15.600Z,32.70
2019-04-22T18:59:39.159Z,33.00
2019-04-22T19:03:00.708Z,32.50
2019-04-22T19:05:26.478Z,32.60
2019-04-22T19:08:13.730Z,31.70
2019-04-22T19:16:09.746Z,31.30
2019-04-22T19:21:12.168Z,30.80
2019-04-22T19:23:44.999Z,31.10
2019-04-22T19:26:35.769Z,30.80
2019-04-22T19:29:03.918Z,30.60
2019-04-22T19:31:43.937Z,30.70
2019-04-22T19:34:30.831Z,31.20
2019-04-22T19:37:18.042Z,30.90
2019-04-22T19:40:09.571Z,31.20
2019-04-22T19:42:43.181Z,31.60
2019-04-22T19:45:17.529Z,31.70
2019-04-22T19:47:59.877Z,31.90
2019-04-22T19:50:46.885Z,31.90
2019-04-22T19:53:27.736Z,32.00
2019-04-22T19:55:52.305Z,32.90
2019-04-22T19:58:53.151Z,33.10
2019-04-22T20:02:00.929Z,33.90
2019-04-22T20:04:52.769Z,34.40
2019-04-22T20:07:15.383Z,35.30
2019-04-22T20:10:00.069Z,36.40
2019-04-22T20:12:30.594Z,37.10
2019-04-22T20:15:07.973Z,38.00
2019-04-22T20:17:44.087Z,39.10
2019-04-22T20:20:31.468Z,39.50
2019-04-22T20:22:57.505Z,41.10
2019-04-22T20:25:34.775Z,41.70
2019-04-22T20:28:13.198Z,42.30
2019-04-22T20:30:47.865Z,43.20
2019-04-22T20:33:29.471Z,43.80
2019-04-22T20:42:45.425Z,44.80
2019-04-22T20:45:13.084Z,45.30
2019-04-22T20:47:45.480Z,45.50
2019-04-22T20:50:29.633Z,46.00
2019-04-22T20:53:06.827Z,46.20
2019-04-22T20:55:30.902Z,46.50
2019-04-22T20:58:12.238Z,46.40
2019-04-22T21:00:36.207Z,45.90
2019-04-22T21:03:07.322Z,46.00
2019-04-22T21:05:47.132Z,46.50
2019-04-22T21:08:33.437Z,45.70
2019-04-22T21:10:52.957Z,45.90
2019-04-22T21:13:30.547Z,45.80
2019-04-22T21:16:18.394Z,45.80
2019-04-22T21:18:44.648Z,45.60
2019-04-22T21:21:36.279Z,45.00
2019-04-22T21:23:54.213Z,45.20
2019-04-22T21:26:33.586Z,44.70
2019-04-22T21:29:03.305Z,44.00
2019-04-22T21:31:39.934Z,43.70
2019-04-22T21:34:15.327Z,43.40
2019-04-22T21:36:48.854Z,43.70
2019-04-22T21:39:15.571Z,43.40
2019-04-22T21:41:47.563Z,42.50
2019-04-22T21:44:18.391Z,42.10
2019-04-22T21:47:03.370Z,41.90
2019-04-22T21:49:29.626Z,41.70
2019-04-22T21:52:00.187Z,42.30
2019-04-22T21:54:36.603Z,41.20
2019-04-22T21:57:24.190Z,41.00
2019-04-22T21:59:57.935Z,40.90
2019-04-22T22:02:28.475Z,40.90
2019-04-22T22:04:58.702Z,41.00
2019-04-22T22:07:18.119Z,40.90
2019-04-22T22:10:04.191Z,40.90
2019-04-22T22:12:43.576Z,41.00
2019-04-22T22:15:13.104Z,41.00
2019-04-22T22:17:51.532Z,41.50
2019-04-22T22:20:24.219Z,41.70
2019-04-22T22:23:09.098Z,41.70
2019-04-22T22:25:35.011Z,42.10
2019-04-22T22:28:17.088Z,41.60
2019-04-22T22:30:58.346Z,41.80
2019-04-22T22:33:17.371Z,42.30
2019-04-22T22:35:45.762Z,41.90
2019-04-22T22:38:23.039Z,42.10
2019-04-22T22:40:43.912Z,42.40
2019-04-22T22:43:29.953Z,42.20
2019-04-22T22:46:05.915Z,42.00
2019-04-22T22:48:51.415Z,42.10
2019-04-22T22:51:30.695Z,42.30
2019-04-22T22:53:58.138Z,42.20
2019-04-22T22:56:38.982Z,42.60
2019-04-22T22:59:03.476Z,42.60
2019-04-22T23:01:58.560Z,42.30
2019-04-22T23:04:43.054Z,42.80
2019-04-22T23:07:17.899Z,43.10
2019-04-22T23:09:47.206Z,42.80
2019-04-22T23:12:31.268Z,43.30
2019-04-22T23:14:49.557Z,43.90
2019-04-22T23:17:07.892Z,43.60
2019-04-22T23:19:42.006Z,43.80
2019-04-22T23:22:20.493Z,43.80
2019-04-22T23:25:14.330Z,44.00
2019-04-22T23:27:54.009Z,44.20
2019-04-22T23:30:38.321Z,44.50
2019-04-22T23:33:22.991Z,44.90
2019-04-22T23:35:51.878Z,45.00
2019-04-22T23:38:31.900Z,45.20
2019-04-22T23:41:05.696Z,45.20
2019-04-22T23:43:53.781Z,45.40
2019-04-22T23:46:13.189Z,45.30
2019-04-22T23:48:39.123Z,45.70
2019-04-22T23:51:19.329Z,45.80
2019-04-22T23:56:26.633Z,46.30
2019-04-22T23:59:02.966Z,47.00
